createdAt,value
2024-05-09T00:00:22.499Z,0.00
2024-05-09T00:01:17.651Z,0.00
2024-05-09T00:02:17.659Z,0.00
2024-05-09T00:03:17.582Z,0.00
2024-05-09T00:04:17.558Z,0.00
2024-05-09T00:05:17.646Z,0.00
2024-05-09T00:06:17.542Z,0.00
2024-05-09T00:07:17.493Z,0.00
2024-05-09T00:08:17.525Z,0.00
2024-05-09T00:09:17.465Z,0.00
2024-05-09T00:10:25.355Z,0.00
2024-05-09T00:11:17.507Z,0.00
2024-05-09T00:12:17.606Z,0.00
2024-05-09T00:13:17.411Z,0.00
2024-05-09T00:14:17.439Z,0.00
2024-05-09T00:15:17.358Z,0.00
2024-05-09T00:16:17.338Z,0.00
2024-05-09T00:17:17.488Z,0.00
2024-05-09T00:18:17.517Z,0.00
2024-05-09T00:19:17.413Z,0.00
2024-05-09T00:20:23.983Z,0.00
2024-05-09T00:21:17.280Z,0.00
2024-05-09T00:22:17.249Z,0.00
2024-05-09T00:23:17.312Z,0.00
2024-05-09T00:24:17.217Z,0.00
2024-05-09T00:25:17.205Z,0.00
2024-05-09T00:26:17.233Z,0.00
2024-05-09T00:27:17.178Z,0.00
2024-05-09T00:28:27.329Z,0.00
2024-05-09T00:30:32.753Z,0.00
2024-05-09T00:31:24.154Z,0.00
2024-05-09T00:33:31.313Z,0.00
2024-05-09T00:34:31.127Z,0.00
2024-05-09T00:36:38.162Z,0.00
2024-05-09T00:37:38.326Z,0.00
2024-05-09T00:39:46.143Z,0.00
2024-05-09T00:40:46.145Z,0.00
2024-05-09T00:42:53.085Z,0.00
2024-05-09T00:43:53.048Z,0.00
2024-05-09T00:45:49.976Z,0.00
2024-05-09T00:46:49.975Z,0.00
2024-05-09T00:47:50.269Z,0.00
2024-05-09T00:48:49.966Z,0.00
2024-05-09T00:49:49.920Z,0.00
2024-05-09T00:50:49.968Z,0.00
2024-05-09T00:51:49.847Z,0.00
2024-05-09T00:52:49.914Z,0.00
2024-05-09T00:53:49.812Z,0.00
2024-05-09T00:54:49.792Z,0.00
2024-05-09T00:55:49.829Z,0.00
2024-05-09T00:56:49.755Z,0.00
2024-05-09T00:57:49.735Z,0.00
2024-05-09T00:58:49.794Z,0.00
2024-05-09T00:59:49.703Z,0.00
2024-05-09T01:00:49.706Z,0.00
2024-05-09T01:01:49.810Z,0.00
2024-05-09T01:02:49.757Z,0.00
2024-05-09T01:03:51.258Z,0.00
2024-05-09T01:04:49.827Z,0.00
2024-05-09T01:05:49.707Z,0.00
2024-05-09T01:06:49.609Z,0.00
2024-05-09T01:07:49.642Z,0.00
2024-05-09T01:08:49.580Z,0.00
2024-05-09T01:09:49.555Z,0.00
2024-05-09T01:10:49.810Z,0.00
2024-05-09T01:11:49.656Z,0.00
2024-05-09T01:12:49.517Z,0.00
2024-05-09T01:13:49.564Z,0.00
2024-05-09T01:14:49.484Z,0.00
2024-05-09T01:15:49.466Z,0.00
2024-05-09T01:16:49.502Z,0.00
2024-05-09T01:17:49.668Z,0.00
2024-05-09T01:18:49.504Z,0.00
2024-05-09T01:19:49.466Z,0.00
2024-05-09T01:20:49.433Z,0.00
2024-05-09T01:21:49.382Z,0.00
2024-05-09T01:22:49.435Z,0.00
2024-05-09T01:23:49.354Z,0.00
2024-05-09T01:24:49.332Z,0.00
2024-05-09T01:25:49.380Z,0.00
2024-05-09T01:26:49.312Z,0.00
2024-05-09T01:27:49.287Z,0.00
2024-05-09T01:28:49.327Z,0.00
2024-05-09T01:29:49.257Z,0.00
2024-05-09T01:30:49.247Z,0.00
2024-05-09T01:31:49.307Z,0.00
2024-05-09T01:32:49.444Z,0.00
2024-05-09T01:33:49.264Z,0.00
2024-05-09T01:34:49.229Z,0.00
2024-05-09T01:35:49.197Z,0.00
2024-05-09T01:36:49.157Z,0.00
2024-05-09T01:37:49.209Z,0.00
2024-05-09T01:38:49.142Z,0.00
2024-05-09T01:39:49.126Z,0.00
2024-05-09T01:40:49.145Z,0.00
2024-05-09T01:41:49.091Z,0.00
2024-05-09T01:42:49.068Z,0.00
2024-05-09T01:43:49.068Z,0.00
2024-05-09T01:44:49.047Z,0.00
2024-05-09T01:45:49.034Z,0.00
2024-05-09T01:46:49.058Z,0.00
2024-05-09T01:47:49.072Z,0.00
2024-05-09T01:48:49.053Z,0.00
2024-05-09T01:49:48.991Z,0.00
2024-05-09T01:50:49.031Z,0.00
2024-05-09T01:51:48.936Z,0.00
2024-05-09T01:52:48.984Z,0.00
2024-05-09T01:53:48.907Z,0.00
2024-05-09T01:54:48.891Z,0.00
2024-05-09T01:55:48.917Z,0.00
2024-05-09T01:56:48.889Z,0.00
2024-05-09T01:57:48.848Z,0.00
2024-05-09T01:58:48.906Z,0.00
2024-05-09T01:59:48.815Z,0.00
2024-05-09T02:00:48.875Z,0.00
2024-05-09T02:01:56.664Z,0.00
2024-05-09T02:02:48.846Z,0.00
2024-05-09T02:03:49.046Z,0.00
2024-05-09T02:04:48.842Z,0.00
2024-05-09T02:05:48.777Z,0.00
2024-05-09T02:06:48.712Z,0.00
2024-05-09T02:07:48.710Z,0.00
2024-05-09T02:08:48.683Z,0.00
2024-05-09T02:09:48.668Z,0.00
2024-05-09T02:10:49.182Z,0.00
2024-05-09T02:11:48.795Z,0.00
2024-05-09T02:12:48.641Z,0.00
2024-05-09T02:13:48.612Z,0.00
2024-05-09T02:14:48.591Z,0.00
2024-05-09T02:15:48.588Z,0.00
2024-05-09T02:16:48.634Z,0.00
2024-05-09T02:17:48.765Z,0.00
2024-05-09T02:18:48.615Z,0.00
2024-05-09T02:19:48.559Z,0.00
2024-05-09T02:20:48.535Z,0.00
2024-05-09T02:21:48.489Z,0.00
2024-05-09T02:22:48.519Z,0.00
2024-05-09T02:23:48.458Z,0.00
2024-05-09T02:24:48.442Z,0.00
2024-05-09T02:25:48.508Z,0.00
2024-05-09T02:26:48.412Z,0.00
2024-05-09T02:27:48.401Z,0.00
2024-05-09T02:28:48.444Z,0.00
2024-05-09T02:29:48.371Z,0.00
2024-05-09T02:30:48.355Z,0.00
2024-05-09T02:31:48.557Z,0.00
2024-05-09T02:32:48.485Z,0.00
2024-05-09T02:33:48.651Z,0.00
2024-05-09T02:34:48.482Z,0.00
2024-05-09T02:35:48.298Z,0.00
2024-05-09T02:36:48.279Z,0.00
2024-05-09T02:37:48.289Z,0.00
2024-05-09T02:38:48.232Z,0.00
2024-05-09T02:39:48.221Z,0.00
2024-05-09T02:40:48.265Z,0.00
2024-05-09T02:41:48.235Z,0.00
2024-05-09T02:42:48.174Z,0.00
2024-05-09T02:43:48.202Z,0.00
2024-05-09T02:44:48.138Z,0.00
2024-05-09T02:45:48.121Z,0.00
2024-05-09T02:46:48.154Z,0.00
2024-05-09T02:47:48.313Z,0.00
2024-05-09T02:48:48.182Z,0.00
2024-05-09T02:49:48.105Z,0.00
2024-05-09T02:50:48.099Z,0.00
2024-05-09T02:51:48.035Z,0.00
2024-05-09T02:52:48.046Z,0.00
2024-05-09T02:53:48.068Z,0.00
2024-05-09T02:54:48.021Z,0.00
2024-05-09T02:55:48.003Z,0.00
2024-05-09T02:56:47.951Z,0.00
2024-05-09T02:57:47.950Z,0.00
2024-05-09T02:58:47.958Z,0.00
2024-05-09T02:59:47.909Z,0.00
2024-05-09T03:00:47.931Z,0.00
2024-05-09T03:01:47.978Z,0.00
2024-05-09T03:02:47.969Z,0.00
2024-05-09T03:03:48.003Z,0.00
2024-05-09T03:04:47.880Z,0.00
2024-05-09T03:05:47.978Z,0.00
2024-05-09T03:06:47.803Z,0.00
2024-05-09T03:07:47.817Z,0.00
2024-05-09T03:08:47.785Z,0.00
2024-05-09T03:09:47.771Z,0.00
2024-05-09T03:10:47.810Z,0.00
2024-05-09T03:11:47.877Z,0.00
2024-05-09T03:12:47.706Z,0.00
2024-05-09T03:13:47.771Z,0.00
2024-05-09T03:14:47.677Z,0.00
2024-05-09T03:15:47.653Z,0.00
2024-05-09T03:16:47.687Z,0.00
2024-05-09T03:17:47.794Z,0.00
2024-05-09T03:18:47.671Z,0.00
2024-05-09T03:19:47.613Z,0.00
2024-05-09T03:20:47.602Z,0.00
2024-05-09T03:21:47.559Z,0.00
2024-05-09T03:22:47.579Z,0.00
2024-05-09T03:23:47.606Z,0.00
2024-05-09T03:24:47.511Z,0.00
2024-05-09T03:25:47.546Z,0.00
2024-05-09T03:26:47.474Z,0.00
2024-05-09T03:27:47.460Z,0.00
2024-05-09T03:28:47.461Z,0.00
2024-05-09T03:29:47.441Z,0.00
2024-05-09T03:30:47.459Z,0.00
2024-05-09T03:31:47.493Z,0.00
2024-05-09T03:32:47.628Z,0.00
2024-05-09T03:33:47.580Z,0.00
2024-05-09T03:34:47.383Z,0.00
2024-05-09T03:35:47.604Z,0.00
2024-05-09T03:36:47.314Z,0.00
2024-05-09T03:37:47.350Z,0.00
2024-05-09T03:38:47.284Z,0.00
2024-05-09T03:39:47.269Z,0.00
2024-05-09T03:40:47.400Z,0.00
2024-05-09T03:41:47.240Z,0.00
2024-05-09T03:42:47.238Z,0.00
2024-05-09T03:43:47.232Z,0.00
2024-05-09T03:44:47.195Z,0.00
2024-05-09T03:45:47.173Z,0.00
2024-05-09T03:46:47.207Z,0.00
2024-05-09T03:47:47.398Z,0.00
2024-05-09T03:48:47.234Z,0.00
2024-05-09T03:49:47.160Z,0.00
2024-05-09T03:50:47.289Z,0.00
2024-05-09T03:51:47.064Z,0.00
2024-05-09T03:55:50.025Z,0.00
2024-05-09T03:56:49.902Z,5.63
2024-05-09T03:59:26.636Z,5.63
2024-05-09T04:00:34.872Z,5.63
2024-05-09T04:23:56.783Z,16.88
2024-05-09T04:24:56.682Z,16.88
2024-05-09T04:25:56.636Z,16.88
2024-05-09T04:26:56.576Z,16.88
2024-05-09T04:27:56.570Z,16.88
2024-05-09T04:28:56.508Z,16.88
2024-05-09T04:29:56.470Z,16.88
2024-05-09T04:30:56.456Z,16.88
2024-05-09T04:31:56.507Z,22.50
2024-05-09T04:32:56.467Z,22.50
2024-05-09T04:33:56.566Z,22.50
2024-05-09T04:34:56.475Z,22.50
2024-05-09T04:35:56.367Z,22.50
2024-05-09T04:36:56.356Z,22.50
2024-05-09T04:37:56.400Z,22.50
2024-05-09T04:38:56.353Z,22.50
2024-05-09T04:39:56.298Z,22.50
2024-05-09T04:40:56.347Z,28.13
2024-05-09T04:41:56.277Z,28.13
2024-05-09T04:42:56.255Z,28.13
2024-05-09T04:43:56.278Z,28.13
2024-05-09T04:44:58.632Z,28.13
2024-05-09T04:45:56.202Z,28.13
2024-05-09T04:46:56.354Z,28.13
2024-05-09T04:58:41.654Z,33.75
2024-05-09T04:59:41.510Z,39.38
2024-05-09T05:00:41.948Z,39.38
2024-05-09T05:01:41.543Z,39.38
2024-05-09T05:02:41.577Z,45.00
2024-05-09T05:03:42.685Z,45.00
2024-05-09T05:04:41.449Z,45.00
2024-05-09T05:05:41.809Z,50.63
2024-05-09T05:06:41.231Z,50.63
2024-05-09T05:07:41.221Z,50.63
2024-05-09T05:08:41.233Z,56.25
2024-05-09T05:09:41.240Z,56.25
2024-05-09T05:10:41.186Z,61.88
2024-05-09T05:11:41.272Z,61.88
2024-05-09T05:12:41.143Z,61.88
2024-05-09T05:13:41.752Z,67.50
2024-05-09T05:14:41.149Z,67.50
2024-05-09T05:15:41.088Z,67.50
2024-05-09T05:16:41.069Z,67.50
2024-05-09T05:17:41.259Z,67.50
2024-05-09T05:18:41.197Z,73.13
2024-05-09T05:19:41.135Z,73.13
2024-05-09T05:20:41.047Z,73.13
2024-05-09T05:21:40.989Z,73.13
2024-05-09T05:22:40.982Z,78.75
2024-05-09T05:23:41.127Z,78.75
2024-05-09T05:24:40.946Z,78.75
2024-05-09T05:25:40.924Z,78.75
2024-05-09T05:26:41.021Z,78.75
2024-05-09T05:27:40.964Z,78.75
2024-05-09T05:28:40.886Z,78.75
2024-05-09T05:29:40.947Z,78.75
2024-05-09T05:30:40.862Z,78.75
2024-05-09T05:31:40.856Z,84.38
2024-05-09T05:32:41.002Z,84.38
2024-05-09T05:33:40.899Z,84.38
2024-05-09T05:34:40.787Z,84.38
2024-05-09T05:35:40.824Z,90.00
2024-05-09T05:36:40.961Z,90.00
2024-05-09T05:37:41.193Z,90.00
2024-05-09T05:38:40.787Z,90.00
2024-05-09T05:39:40.713Z,95.63
2024-05-09T05:40:41.227Z,95.63
2024-05-09T05:41:40.744Z,95.63
2024-05-09T05:42:40.760Z,101.25
2024-05-09T05:43:40.656Z,101.25
2024-05-09T05:44:40.672Z,101.25
2024-05-09T05:45:40.624Z,106.88
2024-05-09T05:46:40.623Z,106.88
2024-05-09T05:47:41.003Z,106.88
2024-05-09T05:48:40.645Z,112.50
2024-05-09T05:49:40.712Z,112.50
2024-05-09T05:50:40.604Z,118.13
2024-05-09T05:51:40.534Z,118.13
2024-05-09T05:52:40.532Z,118.13
2024-05-09T05:53:40.571Z,129.38
2024-05-09T05:54:40.491Z,123.75
2024-05-09T05:55:40.532Z,129.38
2024-05-09T05:56:40.522Z,129.38
2024-05-09T05:57:40.458Z,135.00
2024-05-09T05:58:40.436Z,135.00
2024-05-09T05:59:40.469Z,135.00
2024-05-09T06:00:41.465Z,140.63
2024-05-09T06:01:40.395Z,140.63
2024-05-09T06:02:40.657Z,146.25
2024-05-09T06:03:40.582Z,146.25
2024-05-09T06:04:40.428Z,146.25
2024-05-09T06:05:41.056Z,146.25
2024-05-09T06:06:40.322Z,151.88
2024-05-09T06:07:40.314Z,157.50
2024-05-09T06:08:40.372Z,157.50
2024-05-09T06:09:40.289Z,163.13
2024-05-09T06:10:41.416Z,163.13
2024-05-09T06:11:40.428Z,168.75
2024-05-09T06:12:40.239Z,168.75
2024-05-09T06:13:40.230Z,174.38
2024-05-09T06:14:40.371Z,180.00
2024-05-09T06:15:40.304Z,180.00
2024-05-09T06:16:40.192Z,185.63
2024-05-09T06:17:40.283Z,185.63
2024-05-09T06:18:40.347Z,191.25
2024-05-09T06:19:40.263Z,191.25
2024-05-09T06:20:40.579Z,196.88
2024-05-09T06:21:40.166Z,202.50
2024-05-09T06:22:40.109Z,202.50
2024-05-09T06:23:40.184Z,208.13
2024-05-09T06:24:40.080Z,208.13
2024-05-09T06:25:40.073Z,213.75
2024-05-09T06:26:40.064Z,219.38
2024-05-09T06:27:40.045Z,219.38
2024-05-09T06:28:40.037Z,219.38
2024-05-09T06:29:40.104Z,225.00
2024-05-09T06:30:41.841Z,225.00
2024-05-09T06:31:39.996Z,230.63
2024-05-09T06:32:40.150Z,236.25
2024-05-09T06:33:40.070Z,236.25
2024-05-09T06:34:40.090Z,241.88
2024-05-09T06:35:40.527Z,247.50
2024-05-09T06:36:39.931Z,247.50
2024-05-09T06:37:39.921Z,253.13
2024-05-09T06:38:40.037Z,258.75
2024-05-09T06:39:39.898Z,264.38
2024-05-09T06:40:41.668Z,264.38
2024-05-09T06:41:39.880Z,270.00
2024-05-09T06:42:39.864Z,281.25
2024-05-09T06:43:39.853Z,281.25
2024-05-09T06:44:39.895Z,281.25
2024-05-09T06:45:40.216Z,286.88
2024-05-09T06:46:39.852Z,292.50
2024-05-09T06:47:39.914Z,292.50
2024-05-09T06:48:40.114Z,298.13
2024-05-09T06:49:39.805Z,298.13
2024-05-09T06:50:40.445Z,298.13
2024-05-09T06:51:39.766Z,298.13
2024-05-09T06:52:39.739Z,303.75
2024-05-09T06:53:39.909Z,309.38
2024-05-09T06:54:39.719Z,309.38
2024-05-09T06:55:39.744Z,315.00
2024-05-09T06:56:39.769Z,320.63
2024-05-09T06:57:42.505Z,320.63
2024-05-09T06:58:39.675Z,326.25
2024-05-09T06:59:39.715Z,331.88
2024-05-09T07:00:41.572Z,337.50
2024-05-09T07:01:39.745Z,343.13
2024-05-09T07:02:39.863Z,348.75
2024-05-09T07:03:39.732Z,354.38
2024-05-09T07:04:39.673Z,365.63
2024-05-09T07:05:39.750Z,365.63
2024-05-09T07:06:39.590Z,365.63
2024-05-09T07:07:39.584Z,376.88
2024-05-09T07:08:39.702Z,388.13
2024-05-09T07:09:39.563Z,388.13
2024-05-09T07:10:39.549Z,393.75
2024-05-09T07:11:39.628Z,410.63
2024-05-09T07:12:39.560Z,410.63
2024-05-09T07:13:39.530Z,421.88
2024-05-09T07:14:39.636Z,421.88
2024-05-09T07:15:39.512Z,427.50
2024-05-09T07:23:55.009Z,478.13
2024-05-09T07:24:54.952Z,483.75
2024-05-09T07:25:54.932Z,483.75
2024-05-09T07:26:54.929Z,489.38
2024-05-09T07:27:54.954Z,495.00
2024-05-09T07:28:54.934Z,500.63
2024-05-09T07:29:54.872Z,506.25
2024-05-09T07:30:54.912Z,506.25
2024-05-09T07:31:54.915Z,506.25
2024-05-09T07:32:55.064Z,511.88
2024-05-09T07:33:54.938Z,511.88
2024-05-09T07:34:54.917Z,517.50
2024-05-09T07:35:54.853Z,523.13
2024-05-09T07:36:54.858Z,528.75
2024-05-09T07:37:54.867Z,523.13
2024-05-09T07:38:54.831Z,528.75
2024-05-09T07:39:54.833Z,528.75
2024-05-09T07:40:54.861Z,528.75
2024-05-09T07:41:54.819Z,534.38
2024-05-09T07:42:54.812Z,534.38
2024-05-09T07:43:54.824Z,540.00
2024-05-09T07:50:34.317Z,551.25
2024-05-09T07:52:23.281Z,556.88
2024-05-09T07:53:33.130Z,562.50
2024-05-09T07:53:41.112Z,568.13
2024-05-09T07:54:33.845Z,573.75
2024-05-09T07:55:33.890Z,579.38
2024-05-09T07:56:33.941Z,573.75
2024-05-09T07:57:33.782Z,573.75
2024-05-09T07:58:33.762Z,579.38
2024-05-09T07:59:37.637Z,585.00
2024-05-09T08:00:33.841Z,585.00
2024-05-09T08:01:34.006Z,590.63
2024-05-09T08:02:33.929Z,590.63
2024-05-09T08:03:34.139Z,596.25
2024-05-09T08:04:33.850Z,596.25
2024-05-09T08:05:33.866Z,601.88
2024-05-09T08:06:33.787Z,607.50
2024-05-09T08:07:33.726Z,607.50
2024-05-09T08:08:33.724Z,601.88
2024-05-09T08:09:35.586Z,601.88
2024-05-09T08:10:33.793Z,618.75
2024-05-09T08:11:33.757Z,601.88
2024-05-09T08:12:33.750Z,635.63
2024-05-09T08:13:33.722Z,635.63
2024-05-09T08:14:33.713Z,635.63
2024-05-09T08:15:33.744Z,635.63
2024-05-09T08:16:33.799Z,635.63
2024-05-09T08:17:33.804Z,641.25
2024-05-09T08:18:33.994Z,646.88
2024-05-09T08:19:33.767Z,646.88
2024-05-09T08:20:35.360Z,652.50
2024-05-09T08:21:33.793Z,652.50
2024-05-09T08:22:33.707Z,652.50
2024-05-09T08:23:33.760Z,658.13
2024-05-09T08:24:33.754Z,663.75
2024-05-09T08:25:33.717Z,663.75
2024-05-09T08:26:33.711Z,663.75
2024-05-09T08:27:33.770Z,663.75
2024-05-09T08:28:33.710Z,663.75
2024-05-09T08:29:33.704Z,669.38
2024-05-09T08:30:37.183Z,669.38
2024-05-09T08:31:33.830Z,669.38
2024-05-09T08:32:33.746Z,669.38
2024-05-09T08:33:33.987Z,680.63
2024-05-09T08:34:33.786Z,680.63
2024-05-09T08:35:33.843Z,686.25
2024-05-09T08:36:33.725Z,686.25
2024-05-09T08:37:38.692Z,697.50
2024-05-09T08:38:33.763Z,697.50
2024-05-09T08:39:33.732Z,708.75
2024-05-09T08:40:36.190Z,703.13
2024-05-09T08:41:33.733Z,697.50
2024-05-09T08:42:33.756Z,703.13
2024-05-09T08:43:33.742Z,703.13
2024-05-09T08:44:33.745Z,703.13
2024-05-09T08:45:33.763Z,703.13
2024-05-09T08:46:33.834Z,691.88
2024-05-09T08:47:33.760Z,720.00
2024-05-09T08:48:33.821Z,708.75
2024-05-09T08:49:33.761Z,708.75
2024-05-09T08:50:38.556Z,714.38
2024-05-09T08:51:33.751Z,720.00
2024-05-09T08:52:33.745Z,725.63
2024-05-09T08:53:33.721Z,736.88
2024-05-09T08:54:33.770Z,748.13
2024-05-09T08:55:33.850Z,753.75
2024-05-09T09:03:45.453Z,787.50
2024-05-09T09:04:45.374Z,798.75
2024-05-09T09:05:45.354Z,815.63
2024-05-09T09:06:45.364Z,815.63
2024-05-09T09:07:45.314Z,815.63
2024-05-09T09:08:45.288Z,821.25
2024-05-09T09:09:45.315Z,821.25
2024-05-09T09:10:45.515Z,826.88
2024-05-09T09:11:45.340Z,843.75
2024-05-09T09:12:45.331Z,855.00
2024-05-09T09:13:45.297Z,804.38
2024-05-09T09:14:45.348Z,821.25
2024-05-09T09:15:45.320Z,832.50
2024-05-09T09:16:45.297Z,832.50
2024-05-09T09:17:45.386Z,821.25
2024-05-09T09:18:45.402Z,568.13
2024-05-09T09:19:45.325Z,821.25
2024-05-09T09:20:45.431Z,821.25
2024-05-09T09:21:45.334Z,832.50
2024-05-09T09:22:45.311Z,832.50
2024-05-09T09:23:45.311Z,871.88
2024-05-09T09:24:45.370Z,596.25
2024-05-09T09:25:45.336Z,253.13
2024-05-09T09:26:45.324Z,275.63
2024-05-09T09:27:45.359Z,247.50
2024-05-09T09:28:45.328Z,241.88
2024-05-09T09:29:45.344Z,247.50
2024-05-09T09:30:45.362Z,292.50
2024-05-09T09:31:45.324Z,292.50
2024-05-09T09:32:45.404Z,354.38
2024-05-09T09:33:45.531Z,866.25
2024-05-09T09:34:45.509Z,281.25
2024-05-09T09:35:45.333Z,236.25
2024-05-09T09:36:45.378Z,219.38
2024-05-09T09:37:45.344Z,202.50
2024-05-09T09:38:45.323Z,191.25
2024-05-09T09:39:49.056Z,180.00
2024-05-09T09:40:49.143Z,180.00
2024-05-09T09:41:45.324Z,180.00
2024-05-09T09:42:45.353Z,185.63
2024-05-09T09:43:45.320Z,191.25
2024-05-09T09:44:51.370Z,196.88
2024-05-09T09:45:45.332Z,202.50
2024-05-09T09:46:45.307Z,196.88
2024-05-09T09:47:45.425Z,202.50
2024-05-09T09:48:45.510Z,213.75
2024-05-09T09:49:45.318Z,714.38
2024-05-09T09:50:45.329Z,1130.63
2024-05-09T09:51:45.329Z,1153.13
2024-05-09T09:52:45.494Z,1136.25
2024-05-09T09:53:45.294Z,1141.88
2024-05-09T09:54:45.319Z,1119.38
2024-05-09T09:55:45.298Z,1136.25
2024-05-09T09:56:45.279Z,1136.25
2024-05-09T09:57:45.350Z,1153.13
2024-05-09T09:58:45.271Z,967.50
2024-05-09T09:59:45.278Z,562.50
2024-05-09T10:00:45.618Z,1203.75
2024-05-09T10:01:45.349Z,1288.13
2024-05-09T10:02:45.326Z,1136.25
2024-05-09T10:03:45.432Z,1265.63
2024-05-09T10:04:45.378Z,1198.13
2024-05-09T10:05:47.218Z,1209.38
2024-05-09T10:06:45.272Z,1226.25
2024-05-09T10:07:45.279Z,1271.25
2024-05-09T10:08:45.266Z,1226.25
2024-05-09T10:09:45.334Z,1203.75
2024-05-09T10:10:45.428Z,1243.13
2024-05-09T10:11:49.330Z,1215.00
2024-05-09T10:12:45.314Z,1192.50
2024-05-09T10:13:45.270Z,1203.75
2024-05-09T10:14:45.282Z,1198.13
2024-05-09T10:15:45.355Z,1215.00
2024-05-09T10:16:45.276Z,1203.75
2024-05-09T10:17:45.369Z,1175.63
2024-05-09T10:18:45.482Z,1186.88
2024-05-09T10:19:45.388Z,1226.25
2024-05-09T10:20:45.331Z,1198.13
2024-05-09T10:21:45.354Z,1215.00
2024-05-09T10:22:45.297Z,1209.38
2024-05-09T10:23:45.303Z,1226.25
2024-05-09T10:24:45.352Z,1220.63
2024-05-09T10:25:45.299Z,1198.13
2024-05-09T10:26:45.312Z,1186.88
2024-05-09T10:27:45.659Z,1192.50
2024-05-09T10:37:57.733Z,1310.63
2024-05-09T10:38:56.972Z,1389.38
2024-05-09T10:39:57.011Z,1411.88
2024-05-09T10:40:57.045Z,1417.50
2024-05-09T10:41:56.948Z,1248.75
2024-05-09T10:42:57.112Z,1147.50
2024-05-09T10:43:56.951Z,1130.63
2024-05-09T10:44:56.964Z,1125.00
2024-05-09T10:45:57.096Z,1181.25
2024-05-09T10:46:57.058Z,1310.63
2024-05-09T10:47:57.075Z,1434.38
2024-05-09T10:48:57.615Z,1456.88
2024-05-09T10:49:57.145Z,1558.13
2024-05-09T10:50:56.996Z,1490.63
2024-05-09T10:51:57.047Z,1524.38
2024-05-09T10:52:57.005Z,1569.38
2024-05-09T10:53:57.024Z,1513.13
2024-05-09T10:54:57.109Z,1575.00
2024-05-09T10:55:57.032Z,1546.88
2024-05-09T10:56:57.028Z,1558.13
2024-05-09T10:57:57.053Z,1591.88
2024-05-09T10:58:57.041Z,1428.75
2024-05-09T10:59:57.047Z,1451.25
2024-05-09T11:00:57.097Z,1451.25
2024-05-09T11:01:57.126Z,1389.38
2024-05-09T11:02:57.092Z,1316.25
2024-05-09T11:03:57.158Z,1299.38
2024-05-09T11:04:57.155Z,1293.75
2024-05-09T11:05:57.102Z,1282.50
2024-05-09T11:06:57.173Z,1305.00
2024-05-09T11:07:57.092Z,1305.00
2024-05-09T11:08:57.098Z,1243.13
2024-05-09T11:09:57.128Z,1243.13
2024-05-09T11:10:57.151Z,1260.00
2024-05-09T11:11:57.168Z,1299.38
2024-05-09T11:12:57.187Z,1327.50
2024-05-09T11:13:57.129Z,1366.88
2024-05-09T11:14:57.155Z,1035.00
2024-05-09T11:15:57.227Z,1282.50
2024-05-09T11:16:57.142Z,1321.88
2024-05-09T11:17:57.300Z,1372.50
2024-05-09T11:18:57.666Z,1321.88
2024-05-09T11:19:57.213Z,1316.25
2024-05-09T11:20:57.167Z,1299.38
2024-05-09T11:21:57.192Z,1344.38
2024-05-09T11:22:57.179Z,1355.63
2024-05-09T11:23:57.236Z,1316.25
2024-05-09T11:24:57.222Z,1248.75
2024-05-09T11:25:57.198Z,1203.75
2024-05-09T11:26:57.226Z,1203.75
2024-05-09T11:27:57.260Z,1203.75
2024-05-09T11:28:57.222Z,1175.63
2024-05-09T11:29:57.224Z,1119.38
2024-05-09T11:30:57.261Z,826.88
2024-05-09T11:31:57.299Z,427.50
2024-05-09T11:32:57.334Z,928.13
2024-05-09T11:33:57.448Z,697.50
2024-05-09T11:34:57.260Z,337.50
2024-05-09T11:35:57.278Z,607.50
2024-05-09T11:36:57.293Z,236.25
2024-05-09T11:37:57.269Z,230.63
2024-05-09T11:38:57.277Z,230.63
2024-05-09T11:39:57.316Z,776.25
2024-05-09T11:40:57.283Z,804.38
2024-05-09T11:41:57.292Z,793.13
2024-05-09T11:42:57.385Z,776.25
2024-05-09T11:43:57.300Z,765.00
2024-05-09T11:44:57.307Z,753.75
2024-05-09T11:45:57.577Z,759.38
2024-05-09T11:46:57.311Z,765.00
2024-05-09T11:47:57.532Z,759.38
2024-05-09T11:48:57.369Z,759.38
2024-05-09T11:49:57.429Z,759.38
2024-05-09T11:50:57.318Z,759.38
2024-05-09T11:51:57.383Z,776.25
2024-05-09T11:52:57.327Z,759.38
2024-05-09T12:14:54.370Z,433.13
2024-05-09T12:15:53.135Z,663.75
2024-05-09T12:16:53.315Z,219.38
2024-05-09T12:17:53.726Z,208.13
2024-05-09T12:18:53.605Z,320.63
2024-05-09T12:19:53.034Z,433.13
2024-05-09T12:20:53.036Z,551.25
2024-05-09T12:21:53.102Z,264.38
2024-05-09T12:22:53.033Z,495.00
2024-05-09T12:23:53.051Z,219.38
2024-05-09T12:24:53.124Z,213.75
2024-05-09T12:25:53.047Z,202.50
2024-05-09T12:26:53.047Z,196.88
2024-05-09T12:27:53.152Z,241.88
2024-05-09T12:28:53.040Z,646.88
2024-05-09T12:29:53.050Z,258.75
2024-05-09T12:30:53.165Z,286.88
2024-05-09T12:31:53.169Z,202.50
2024-05-09T12:32:53.376Z,545.63
2024-05-09T12:33:53.102Z,438.75
2024-05-09T12:34:53.055Z,230.63
2024-05-09T12:35:53.036Z,202.50
2024-05-09T12:36:53.097Z,562.50
2024-05-09T12:37:53.034Z,168.75
2024-05-09T12:38:53.041Z,219.38
2024-05-09T12:39:53.081Z,523.13
2024-05-09T12:40:53.205Z,562.50
2024-05-09T12:41:53.035Z,483.75
2024-05-09T12:42:53.060Z,545.63
2024-05-09T12:43:53.043Z,528.75
2024-05-09T12:44:53.030Z,517.50
2024-05-09T12:45:53.061Z,511.88
2024-05-09T12:46:53.030Z,500.63
2024-05-09T12:47:53.122Z,500.63
2024-05-09T12:48:53.237Z,495.00
2024-05-09T12:49:53.060Z,489.38
2024-05-09T12:50:53.195Z,483.75
2024-05-09T12:51:53.046Z,472.50
2024-05-09T12:52:53.022Z,466.88
2024-05-09T12:53:53.021Z,455.63
2024-05-09T12:54:53.102Z,450.00
2024-05-09T12:55:57.038Z,450.00
2024-05-09T13:02:07.159Z,213.75
2024-05-09T13:19:00.646Z,360.00
2024-05-09T13:20:00.721Z,348.75
2024-05-09T13:21:00.659Z,343.13
2024-05-09T13:22:00.520Z,320.63
2024-05-09T13:23:00.505Z,326.25
2024-05-09T13:36:30.400Z,298.13
2024-05-09T13:37:31.011Z,292.50
2024-05-09T13:38:30.496Z,286.88
2024-05-09T13:39:31.137Z,281.25
2024-05-09T13:40:34.304Z,275.63
2024-05-09T13:41:30.173Z,270.00
2024-05-09T13:42:30.162Z,264.38
2024-05-09T13:43:31.078Z,258.75
2024-05-09T13:44:30.232Z,258.75
2024-05-09T13:45:30.607Z,253.13
2024-05-09T13:46:30.468Z,247.50
2024-05-09T13:47:30.047Z,241.88
2024-05-09T13:48:30.125Z,236.25
2024-05-09T13:49:30.249Z,230.63
2024-05-09T13:50:34.483Z,225.00
2024-05-09T13:51:30.009Z,225.00
2024-05-09T13:52:29.958Z,219.38
2024-05-09T13:53:29.967Z,219.38
2024-05-09T13:54:30.047Z,213.75
2024-05-09T13:55:29.972Z,213.75
2024-05-09T13:56:29.954Z,208.13
2024-05-09T13:57:29.955Z,202.50
2024-05-09T13:58:29.975Z,191.25
2024-05-09T13:59:29.934Z,185.63
2024-05-09T14:00:42.674Z,185.63
2024-05-09T14:01:29.983Z,180.00
2024-05-09T14:02:30.063Z,180.00
2024-05-09T14:03:30.154Z,174.38
2024-05-09T14:04:30.099Z,174.38
2024-05-09T14:05:30.123Z,168.75
2024-05-09T14:06:29.951Z,174.38
2024-05-09T14:07:29.876Z,163.13
2024-05-09T14:08:29.869Z,163.13
2024-05-09T14:09:29.902Z,157.50
2024-05-09T14:10:31.804Z,157.50
2024-05-09T14:11:29.888Z,168.75
2024-05-09T14:12:29.888Z,157.50
2024-05-09T14:13:29.861Z,157.50
2024-05-09T14:14:30.007Z,157.50
2024-05-09T14:15:29.936Z,157.50
2024-05-09T14:46:55.375Z,101.25
2024-05-09T14:47:55.517Z,101.25
2024-05-09T15:31:34.668Z,84.38
2024-05-09T15:32:35.531Z,84.38
2024-05-09T15:33:34.982Z,78.75
2024-05-09T15:34:34.945Z,78.75
2024-05-09T15:35:34.768Z,78.75
2024-05-09T15:36:34.670Z,73.13
2024-05-09T15:37:34.456Z,73.13
2024-05-09T15:38:34.744Z,73.13
2024-05-09T15:39:34.396Z,73.13
2024-05-09T15:40:39.184Z,73.13
2024-05-09T15:41:34.336Z,73.13
2024-05-09T15:42:34.358Z,73.13
2024-05-09T15:43:34.466Z,67.50
2024-05-09T15:44:34.319Z,67.50
2024-05-09T15:45:34.767Z,67.50
2024-05-09T15:46:34.434Z,61.88
2024-05-09T15:47:34.420Z,61.88
2024-05-09T15:48:34.522Z,67.50
2024-05-09T15:49:34.663Z,67.50
2024-05-09T15:50:38.860Z,67.50
2024-05-09T15:51:34.267Z,67.50
2024-05-09T15:52:34.255Z,61.88
2024-05-09T15:53:34.250Z,61.88
2024-05-09T15:54:34.264Z,56.25
2024-05-09T15:55:34.881Z,56.25
2024-05-09T15:56:34.240Z,56.25
2024-05-09T15:57:34.250Z,56.25
2024-05-09T15:58:34.222Z,56.25
2024-05-09T15:59:34.194Z,56.25
2024-05-09T16:00:38.773Z,56.25
2024-05-09T16:01:34.357Z,56.25
2024-05-09T16:02:34.328Z,56.25
2024-05-09T16:03:34.374Z,67.50
2024-05-09T16:04:34.348Z,61.88